sensor_id;sensor_type;location;lat;lon;timestamp;P1;durP1;ratioP1;P2;durP2;ratioP2
9749;SDS011;4914;43.218;27.908;2022-08-19T00:01:21;14.32;;;12.73;;
9749;SDS011;4914;43.218;27.908;2022-08-19T00:03:48;15.07;;;13.57;;
9749;SDS011;4914;43.218;27.908;2022-08-19T00:06:15;16.15;;;13.02;;
9749;SDS011;4914;43.218;27.908;2022-08-19T00:08:44;13.98;;;12.65;;
9749;SDS011;4914;43.218;27.908;2022-08-19T00:11:11;13.82;;;12.30;;
9749;SDS011;4914;43.218;27.908;2022-08-19T00:13:38;15.95;;;11.63;;
9749;SDS011;4914;43.218;27.908;2022-08-19T00:16:06;13.27;;;11.60;;
9749;SDS011;4914;43.218;27.908;2022-08-19T00:18:33;13.52;;;12.18;;
9749;SDS011;4914;43.218;27.908;2022-08-19T00:21:01;16.60;;;11.68;;
9749;SDS011;4914;43.218;27.908;2022-08-19T00:23:28;12.98;;;11.73;;
9749;SDS011;4914;43.218;27.908;2022-08-19T00:25:56;13.00;;;11.63;;
9749;SDS011;4914;43.218;27.908;2022-08-19T00:28:23;13.13;;;11.75;;
9749;SDS011;4914;43.218;27.908;2022-08-19T00:30:50;12.23;;;11.13;;
9749;SDS011;4914;43.218;27.908;2022-08-19T00:33:18;12.30;;;11.20;;
9749;SDS011;4914;43.218;27.908;2022-08-19T00:35:45;13.70;;;10.73;;
9749;SDS011;4914;43.218;27.908;2022-08-19T00:38:12;13.63;;;10.68;;
9749;SDS011;4914;43.218;27.908;2022-08-19T00:40:40;12.48;;;11.18;;
9749;SDS011;4914;43.218;27.908;2022-08-19T00:43:13;11.73;;;10.60;;
9749;SDS011;4914;43.218;27.908;2022-08-19T00:45:45;11.68;;;10.57;;
9749;SDS011;4914;43.218;27.908;2022-08-19T00:48:12;11.88;;;10.68;;
9749;SDS011;4914;43.218;27.908;2022-08-19T00:50:41;13.55;;;10.60;;
9749;SDS011;4914;43.218;27.908;2022-08-19T00:53:09;11.85;;;10.75;;
9749;SDS011;4914;43.218;27.908;2022-08-19T00:55:37;12.88;;;10.68;;
9749;SDS011;4914;43.218;27.908;2022-08-19T00:58:05;11.18;;;10.18;;
9749;SDS011;4914;43.218;27.908;2022-08-19T01:00:36;11.70;;;10.60;;
9749;SDS011;4914;43.218;27.908;2022-08-19T01:03:03;12.05;;;10.80;;
9749;SDS011;4914;43.218;27.908;2022-08-19T01:05:33;11.75;;;10.57;;
9749;SDS011;4914;43.218;27.908;2022-08-19T01:08:04;11.82;;;10.73;;
9749;SDS011;4914;43.218;27.908;2022-08-19T01:10:32;12.40;;;11.20;;
9749;SDS011;4914;43.218;27.908;2022-08-19T01:13:04;13.43;;;10.75;;
9749;SDS011;4914;43.218;27.908;2022-08-19T01:15:32;11.40;;;10.40;;
9749;SDS011;4914;43.218;27.908;2022-08-19T01:18:07;13.50;;;10.80;;
9749;SDS011;4914;43.218;27.908;2022-08-19T01:20:38;12.55;;;11.25;;
9749;SDS011;4914;43.218;27.908;2022-08-19T01:23:07;15.30;;;10.55;;
9749;SDS011;4914;43.218;27.908;2022-08-19T01:25:35;14.70;;;11.10;;
9749;SDS011;4914;43.218;27.908;2022-08-19T01:28:15;12.45;;;11.07;;
9749;SDS011;4914;43.218;27.908;2022-08-19T01:30:44;12.73;;;11.43;;
9749;SDS011;4914;43.218;27.908;2022-08-19T01:33:11;13.48;;;12.15;;
9749;SDS011;4914;43.218;27.908;2022-08-19T01:35:39;17.75;;;13.57;;
9749;SDS011;4914;43.218;27.908;2022-08-19T01:38:08;18.42;;;13.60;;
9749;SDS011;4914;43.218;27.908;2022-08-19T01:40:38;15.27;;;12.90;;
9749;SDS011;4914;43.218;27.908;2022-08-19T01:43:07;18.13;;;13.60;;
9749;SDS011;4914;43.218;27.908;2022-08-19T01:45:35;14.93;;;13.23;;
9749;SDS011;4914;43.218;27.908;2022-08-19T01:48:05;15.63;;;13.50;;
9749;SDS011;4914;43.218;27.908;2022-08-19T01:50:32;16.38;;;13.38;;
9749;SDS011;4914;43.218;27.908;2022-08-19T01:53:01;19.20;;;13.88;;
9749;SDS011;4914;43.218;27.908;2022-08-19T01:55:31;15.75;;;13.50;;
9749;SDS011;4914;43.218;27.908;2022-08-19T01:58:00;16.83;;;13.73;;
9749;SDS011;4914;43.218;27.908;2022-08-19T02:00:29;15.82;;;13.65;;
9749;SDS011;4914;43.218;27.908;2022-08-19T02:02:57;15.18;;;13.60;;
9749;SDS011;4914;43.218;27.908;2022-08-19T02:05:26;15.27;;;13.35;;
9749;SDS011;4914;43.218;27.908;2022-08-19T02:07:54;15.43;;;13.32;;
9749;SDS011;4914;43.218;27.908;2022-08-19T02:10:22;15.18;;;13.05;;
9749;SDS011;4914;43.218;27.908;2022-08-19T02:12:50;14.27;;;12.88;;
9749;SDS011;4914;43.218;27.908;2022-08-19T02:15:17;14.20;;;12.70;;
9749;SDS011;4914;43.218;27.908;2022-08-19T02:17:45;13.57;;;12.38;;
9749;SDS011;4914;43.218;27.908;2022-08-19T02:20:13;13.25;;;11.85;;
9749;SDS011;4914;43.218;27.908;2022-08-19T02:22:41;13.18;;;11.93;;
9749;SDS011;4914;43.218;27.908;2022-08-19T02:25:09;15.65;;;12.13;;
9749;SDS011;4914;43.218;27.908;2022-08-19T02:27:37;13.38;;;11.25;;
9749;SDS011;4914;43.218;27.908;2022-08-19T02:30:06;13.40;;;12.00;;
9749;SDS011;4914;43.218;27.908;2022-08-19T02:32:36;14.57;;;12.13;;
9749;SDS011;4914;43.218;27.908;2022-08-19T02:35:03;15.65;;;12.60;;
9749;SDS011;4914;43.218;27.908;2022-08-19T02:37:30;16.77;;;13.07;;
9749;SDS011;4914;43.218;27.908;2022-08-19T02:40:14;15.15;;;13.52;;
9749;SDS011;4914;43.218;27.908;2022-08-19T02:42:42;17.38;;;14.40;;
9749;SDS011;4914;43.218;27.908;2022-08-19T02:45:12;16.25;;;14.55;;
9749;SDS011;4914;43.218;27.908;2022-08-19T02:47:39;18.55;;;14.65;;
9749;SDS011;4914;43.218;27.908;2022-08-19T02:50:07;21.05;;;15.32;;
9749;SDS011;4914;43.218;27.908;2022-08-19T02:52:34;19.65;;;14.02;;
9749;SDS011;4914;43.218;27.908;2022-08-19T02:55:01;17.73;;;14.73;;
9749;SDS011;4914;43.218;27.908;2022-08-19T02:57:29;19.77;;;15.77;;
9749;SDS011;4914;43.218;27.908;2022-08-19T02:59:58;18.55;;;16.17;;
9749;SDS011;4914;43.218;27.908;2022-08-19T03:02:26;23.25;;;17.52;;
9749;SDS011;4914;43.218;27.908;2022-08-19T03:04:53;19.60;;;17.65;;
9749;SDS011;4914;43.218;27.908;2022-08-19T03:07:20;28.92;;;18.42;;
9749;SDS011;4914;43.218;27.908;2022-08-19T03:09:47;22.75;;;17.98;;
9749;SDS011;4914;43.218;27.908;2022-08-19T03:12:14;21.88;;;18.33;;
9749;SDS011;4914;43.218;27.908;2022-08-19T03:14:41;23.30;;;18.02;;
9749;SDS011;4914;43.218;27.908;2022-08-19T03:17:08;21.95;;;17.45;;
9749;SDS011;4914;43.218;27.908;2022-08-19T03:19:36;19.52;;;17.50;;
9749;SDS011;4914;43.218;27.908;2022-08-19T03:22:03;23.58;;;17.20;;
9749;SDS011;4914;43.218;27.908;2022-08-19T03:24:30;21.60;;;16.40;;
9749;SDS011;4914;43.218;27.908;2022-08-19T03:26:58;18.10;;;15.40;;
9749;SDS011;4914;43.218;27.908;2022-08-19T03:29:25;21.55;;;15.18;;
9749;SDS011;4914;43.218;27.908;2022-08-19T03:31:54;19.00;;;15.35;;
9749;SDS011;4914;43.218;27.908;2022-08-19T03:34:21;19.10;;;15.63;;
9749;SDS011;4914;43.218;27.908;2022-08-19T03:36:53;20.95;;;14.27;;
9749;SDS011;4914;43.218;27.908;2022-08-19T03:39:20;21.42;;;14.80;;
9749;SDS011;4914;43.218;27.908;2022-08-19T03:41:48;22.25;;;14.30;;
9749;SDS011;4914;43.218;27.908;2022-08-19T03:44:17;20.23;;;15.48;;
9749;SDS011;4914;43.218;27.908;2022-08-19T03:46:46;24.40;;;14.63;;
9749;SDS011;4914;43.218;27.908;2022-08-19T03:49:15;21.33;;;14.02;;
9749;SDS011;4914;43.218;27.908;2022-08-19T03:51:42;16.45;;;13.68;;
9749;SDS011;4914;43.218;27.908;2022-08-19T03:54:12;16.35;;;12.98;;
9749;SDS011;4914;43.218;27.908;2022-08-19T03:56:40;17.65;;;13.38;;
9749;SDS011;4914;43.218;27.908;2022-08-19T03:59:09;14.77;;;13.35;;
9749;SDS011;4914;43.218;27.908;2022-08-19T04:01:40;18.45;;;13.52;;
9749;SDS011;4914;43.218;27.908;2022-08-19T04:04:07;15.93;;;12.93;;
9749;SDS011;4914;43.218;27.908;2022-08-19T04:06:36;16.55;;;14.77;;
9749;SDS011;4914;43.218;27.908;2022-08-19T04:09:05;15.68;;;14.02;;
9749;SDS011;4914;43.218;27.908;2022-08-19T04:11:37;20.02;;;13.73;;
9749;SDS011;4914;43.218;27.908;2022-08-19T04:14:06;18.80;;;14.63;;
9749;SDS011;4914;43.218;27.908;2022-08-19T04:16:33;23.80;;;15.13;;
9749;SDS011;4914;43.218;27.908;2022-08-19T04:19:01;19.92;;;16.52;;
9749;SDS011;4914;43.218;27.908;2022-08-19T04:21:30;19.98;;;15.52;;
9749;SDS011;4914;43.218;27.908;2022-08-19T04:23:57;23.15;;;15.18;;
9749;SDS011;4914;43.218;27.908;2022-08-19T04:26:25;19.17;;;15.80;;
9749;SDS011;4914;43.218;27.908;2022-08-19T04:28:55;20.77;;;14.95;;
9749;SDS011;4914;43.218;27.908;2022-08-19T04:31:22;23.80;;;15.48;;
9749;SDS011;4914;43.218;27.908;2022-08-19T04:33:52;18.98;;;15.02;;
9749;SDS011;4914;43.218;27.908;2022-08-19T04:36:20;21.15;;;16.02;;
9749;SDS011;4914;43.218;27.908;2022-08-19T04:38:50;19.00;;;15.40;;
9749;SDS011;4914;43.218;27.908;2022-08-19T04:41:20;19.67;;;17.58;;
9749;SDS011;4914;43.218;27.908;2022-08-19T04:44:06;20.20;;;18.15;;
9749;SDS011;4914;43.218;27.908;2022-08-19T04:46:33;17.85;;;15.88;;
9749;SDS011;4914;43.218;27.908;2022-08-19T04:49:02;23.55;;;17.70;;
9749;SDS011;4914;43.218;27.908;2022-08-19T04:51:30;31.17;;;20.35;;
9749;SDS011;4914;43.218;27.908;2022-08-19T04:53:58;35.97;;;32.28;;
9749;SDS011;4914;43.218;27.908;2022-08-19T04:56:27;32.33;;;25.38;;
9749;SDS011;4914;43.218;27.908;2022-08-19T04:58:54;31.90;;;23.73;;
9749;SDS011;4914;43.218;27.908;2022-08-19T05:01:25;25.05;;;19.00;;
9749;SDS011;4914;43.218;27.908;2022-08-19T05:03:55;27.00;;;17.40;;
9749;SDS011;4914;43.218;27.908;2022-08-19T05:06:22;21.45;;;16.65;;
9749;SDS011;4914;43.218;27.908;2022-08-19T05:08:50;18.00;;;16.08;;
9749;SDS011;4914;43.218;27.908;2022-08-19T05:11:18;21.52;;;16.08;;
9749;SDS011;4914;43.218;27.908;2022-08-19T05:13:46;16.75;;;15.02;;
9749;SDS011;4914;43.218;27.908;2022-08-19T05:16:15;18.77;;;15.60;;
9749;SDS011;4914;43.218;27.908;2022-08-19T05:18:44;18.42;;;15.35;;
9749;SDS011;4914;43.218;27.908;2022-08-19T05:21:29;19.02;;;14.57;;
9749;SDS011;4914;43.218;27.908;2022-08-19T05:24:14;19.63;;;14.38;;
9749;SDS011;4914;43.218;27.908;2022-08-19T05:26:43;21.00;;;15.15;;
9749;SDS011;4914;43.218;27.908;2022-08-19T05:29:13;24.35;;;14.63;;
9749;SDS011;4914;43.218;27.908;2022-08-19T05:31:41;18.38;;;13.25;;
9749;SDS011;4914;43.218;27.908;2022-08-19T05:34:10;17.25;;;13.00;;
9749;SDS011;4914;43.218;27.908;2022-08-19T05:36:39;13.18;;;11.55;;
9749;SDS011;4914;43.218;27.908;2022-08-19T05:39:10;16.15;;;11.82;;
9749;SDS011;4914;43.218;27.908;2022-08-19T05:41:40;14.38;;;11.80;;
9749;SDS011;4914;43.218;27.908;2022-08-19T05:44:07;12.93;;;11.15;;
9749;SDS011;4914;43.218;27.908;2022-08-19T05:46:35;12.32;;;10.95;;
9749;SDS011;4914;43.218;27.908;2022-08-19T05:49:03;16.33;;;11.60;;
9749;SDS011;4914;43.218;27.908;2022-08-19T05:51:32;15.82;;;10.98;;
9749;SDS011;4914;43.218;27.908;2022-08-19T05:54:00;13.68;;;11.50;;
9749;SDS011;4914;43.218;27.908;2022-08-19T05:56:28;13.20;;;11.63;;
9749;SDS011;4914;43.218;27.908;2022-08-19T05:58:55;15.60;;;11.10;;
9749;SDS011;4914;43.218;27.908;2022-08-19T06:01:23;14.52;;;10.52;;
9749;SDS011;4914;43.218;27.908;2022-08-19T06:03:52;17.98;;;11.50;;
9749;SDS011;4914;43.218;27.908;2022-08-19T06:06:20;20.73;;;11.73;;
9749;SDS011;4914;43.218;27.908;2022-08-19T06:08:49;16.50;;;12.73;;
9749;SDS011;4914;43.218;27.908;2022-08-19T06:11:17;22.55;;;13.95;;
9749;SDS011;4914;43.218;27.908;2022-08-19T06:13:48;17.00;;;15.20;;
9749;SDS011;4914;43.218;27.908;2022-08-19T06:16:17;15.70;;;12.23;;
9749;SDS011;4914;43.218;27.908;2022-08-19T06:18:49;18.10;;;12.05;;
9749;SDS011;4914;43.218;27.908;2022-08-19T06:21:18;14.50;;;13.00;;
9749;SDS011;4914;43.218;27.908;2022-08-19T06:23:45;15.80;;;12.27;;
9749;SDS011;4914;43.218;27.908;2022-08-19T06:26:15;13.90;;;11.70;;
9749;SDS011;4914;43.218;27.908;2022-08-19T06:28:42;13.43;;;11.20;;
9749;SDS011;4914;43.218;27.908;2022-08-19T06:31:11;13.70;;;10.75;;
9749;SDS011;4914;43.218;27.908;2022-08-19T06:33:39;20.95;;;11.38;;
9749;SDS011;4914;43.218;27.908;2022-08-19T06:36:06;13.48;;;11.82;;
9749;SDS011;4914;43.218;27.908;2022-08-19T06:38:34;21.00;;;16.13;;
9749;SDS011;4914;43.218;27.908;2022-08-19T06:41:01;16.33;;;11.60;;
9749;SDS011;4914;43.218;27.908;2022-08-19T06:43:30;12.63;;;11.38;;
9749;SDS011;4914;43.218;27.908;2022-08-19T06:45:57;16.52;;;14.18;;
9749;SDS011;4914;43.218;27.908;2022-08-19T06:48:26;14.15;;;12.35;;
9749;SDS011;4914;43.218;27.908;2022-08-19T06:50:53;13.73;;;10.68;;
9749;SDS011;4914;43.218;27.908;2022-08-19T06:53:19;13.23;;;11.80;;
9749;SDS011;4914;43.218;27.908;2022-08-19T06:55:46;16.60;;;10.93;;
9749;SDS011;4914;43.218;27.908;2022-08-19T06:58:14;16.38;;;9.98;;
9749;SDS011;4914;43.218;27.908;2022-08-19T07:00:42;12.85;;;11.40;;
9749;SDS011;4914;43.218;27.908;2022-08-19T07:03:09;14.85;;;12.05;;
9749;SDS011;4914;43.218;27.908;2022-08-19T07:05:39;11.57;;;10.48;;
9749;SDS011;4914;43.218;27.908;2022-08-19T07:08:07;27.45;;;10.75;;
9749;SDS011;4914;43.218;27.908;2022-08-19T07:10:34;16.05;;;10.77;;
9749;SDS011;4914;43.218;27.908;2022-08-19T07:13:01;13.77;;;10.52;;
9749;SDS011;4914;43.218;27.908;2022-08-19T07:15:28;14.60;;;10.63;;
9749;SDS011;4914;43.218;27.908;2022-08-19T07:17:57;11.30;;;10.13;;
9749;SDS011;4914;43.218;27.908;2022-08-19T07:20:24;13.27;;;10.07;;
9749;SDS011;4914;43.218;27.908;2022-08-19T07:22:51;14.23;;;10.05;;
9749;SDS011;4914;43.218;27.908;2022-08-19T07:25:18;11.68;;;9.48;;
9749;SDS011;4914;43.218;27.908;2022-08-19T07:27:48;13.02;;;9.88;;
9749;SDS011;4914;43.218;27.908;2022-08-19T07:30:15;11.38;;;9.85;;
9749;SDS011;4914;43.218;27.908;2022-08-19T07:32:43;14.07;;;9.80;;
9749;SDS011;4914;43.218;27.908;2022-08-19T07:35:11;12.75;;;10.23;;
9749;SDS011;4914;43.218;27.908;2022-08-19T07:37:38;14.60;;;9.90;;
9749;SDS011;4914;43.218;27.908;2022-08-19T07:40:09;13.38;;;10.35;;
9749;SDS011;4914;43.218;27.908;2022-08-19T07:42:37;14.20;;;10.15;;
9749;SDS011;4914;43.218;27.908;2022-08-19T07:45:05;16.63;;;10.07;;
9749;SDS011;4914;43.218;27.908;2022-08-19T07:47:33;11.52;;;10.38;;
9749;SDS011;4914;43.218;27.908;2022-08-19T07:50:00;10.90;;;9.63;;
9749;SDS011;4914;43.218;27.908;2022-08-19T07:52:31;12.30;;;9.50;;
9749;SDS011;4914;43.218;27.908;2022-08-19T07:54:57;27.83;;;10.50;;
9749;SDS011;4914;43.218;27.908;2022-08-19T07:57:28;16.10;;;10.20;;
9749;SDS011;4914;43.218;27.908;2022-08-19T07:59:55;15.50;;;9.63;;
9749;SDS011;4914;43.218;27.908;2022-08-19T08:02:22;13.60;;;10.13;;
9749;SDS011;4914;43.218;27.908;2022-08-19T08:04:49;13.45;;;9.63;;
9749;SDS011;4914;43.218;27.908;2022-08-19T08:07:34;15.73;;;8.57;;
9749;SDS011;4914;43.218;27.908;2022-08-19T08:10:18;13.52;;;9.00;;
9749;SDS011;4914;43.218;27.908;2022-08-19T08:12:45;14.95;;;8.63;;
9749;SDS011;4914;43.218;27.908;2022-08-19T08:15:13;16.58;;;8.68;;
9749;SDS011;4914;43.218;27.908;2022-08-19T08:17:44;11.27;;;8.48;;
9749;SDS011;4914;43.218;27.908;2022-08-19T08:20:11;9.68;;;8.68;;
9749;SDS011;4914;43.218;27.908;2022-08-19T08:22:43;11.43;;;9.05;;
9749;SDS011;4914;43.218;27.908;2022-08-19T08:25:28;16.17;;;8.65;;
9749;SDS011;4914;43.218;27.908;2022-08-19T08:27:56;66.70;;;10.05;;
9749;SDS011;4914;43.218;27.908;2022-08-19T08:30:25;23.95;;;9.63;;
9749;SDS011;4914;43.218;27.908;2022-08-19T08:32:54;24.35;;;9.00;;
9749;SDS011;4914;43.218;27.908;2022-08-19T08:35:21;15.15;;;10.70;;
9749;SDS011;4914;43.218;27.908;2022-08-19T08:37:51;16.95;;;8.90;;
9749;SDS011;4914;43.218;27.908;2022-08-19T08:40:21;17.38;;;8.90;;
9749;SDS011;4914;43.218;27.908;2022-08-19T08:42:55;12.23;;;8.50;;
9749;SDS011;4914;43.218;27.908;2022-08-19T08:45:42;10.90;;;8.60;;
9749;SDS011;4914;43.218;27.908;2022-08-19T08:48:15;11.27;;;8.60;;
9749;SDS011;4914;43.218;27.908;2022-08-19T08:50:48;8.90;;;8.10;;
9749;SDS011;4914;43.218;27.908;2022-08-19T08:53:19;26.35;;;8.77;;
9749;SDS011;4914;43.218;27.908;2022-08-19T08:55:47;16.65;;;9.00;;
9749;SDS011;4914;43.218;27.908;2022-08-19T08:58:16;10.98;;;9.00;;
9749;SDS011;4914;43.218;27.908;2022-08-19T09:00:50;11.25;;;8.93;;
9749;SDS011;4914;43.218;27.908;2022-08-19T09:03:19;13.30;;;8.93;;
9749;SDS011;4914;43.218;27.908;2022-08-19T09:05:49;15.45;;;8.27;;
9749;SDS011;4914;43.218;27.908;2022-08-19T09:08:29;16.33;;;7.97;;
9749;SDS011;4914;43.218;27.908;2022-08-19T09:11:06;19.60;;;7.55;;
9749;SDS011;4914;43.218;27.908;2022-08-19T09:13:37;14.07;;;6.95;;
9749;SDS011;4914;43.218;27.908;2022-08-19T09:16:14;13.32;;;7.05;;
9749;SDS011;4914;43.218;27.908;2022-08-19T09:18:43;12.27;;;7.10;;
9749;SDS011;4914;43.218;27.908;2022-08-19T09:21:12;23.45;;;7.53;;
9749;SDS011;4914;43.218;27.908;2022-08-19T09:23:41;15.98;;;7.55;;
9749;SDS011;4914;43.218;27.908;2022-08-19T09:26:09;12.35;;;7.60;;
9749;SDS011;4914;43.218;27.908;2022-08-19T09:28:39;16.73;;;8.63;;
9749;SDS011;4914;43.218;27.908;2022-08-19T09:31:08;18.67;;;7.97;;
9749;SDS011;4914;43.218;27.908;2022-08-19T09:33:36;19.25;;;6.68;;
9749;SDS011;4914;43.218;27.908;2022-08-19T09:36:04;22.33;;;7.38;;
9749;SDS011;4914;43.218;27.908;2022-08-19T09:38:32;14.52;;;7.38;;
9749;SDS011;4914;43.218;27.908;2022-08-19T09:41:05;11.85;;;7.10;;
9749;SDS011;4914;43.218;27.908;2022-08-19T09:43:33;12.82;;;7.05;;
9749;SDS011;4914;43.218;27.908;2022-08-19T09:46:02;15.00;;;7.10;;
9749;SDS011;4914;43.218;27.908;2022-08-19T09:48:30;12.52;;;7.40;;
9749;SDS011;4914;43.218;27.908;2022-08-19T09:51:02;14.30;;;7.22;;
9749;SDS011;4914;43.218;27.908;2022-08-19T09:53:30;16.65;;;7.07;;
9749;SDS011;4914;43.218;27.908;2022-08-19T09:55:57;10.98;;;6.95;;
9749;SDS011;4914;43.218;27.908;2022-08-19T09:58:25;18.23;;;6.95;;
9749;SDS011;4914;43.218;27.908;2022-08-19T10:00:53;9.10;;;7.10;;
9749;SDS011;4914;43.218;27.908;2022-08-19T10:03:20;16.23;;;7.55;;
9749;SDS011;4914;43.218;27.908;2022-08-19T10:05:47;11.45;;;7.10;;
9749;SDS011;4914;43.218;27.908;2022-08-19T10:08:13;15.18;;;7.63;;
9749;SDS011;4914;43.218;27.908;2022-08-19T10:10:41;9.68;;;8.57;;
9749;SDS011;4914;43.218;27.908;2022-08-19T10:13:09;10.75;;;7.55;;
9749;SDS011;4914;43.218;27.908;2022-08-19T10:15:37;15.88;;;8.32;;
9749;SDS011;4914;43.218;27.908;2022-08-19T10:18:05;17.20;;;8.25;;
9749;SDS011;4914;43.218;27.908;2022-08-19T10:20:33;16.20;;;7.25;;
9749;SDS011;4914;43.218;27.908;2022-08-19T10:23:00;14.48;;;8.00;;
9749;SDS011;4914;43.218;27.908;2022-08-19T10:25:28;15.10;;;7.60;;
9749;SDS011;4914;43.218;27.908;2022-08-19T10:27:55;9.15;;;6.90;;
9749;SDS011;4914;43.218;27.908;2022-08-19T10:30:22;8.93;;;6.70;;
9749;SDS011;4914;43.218;27.908;2022-08-19T10:32:50;16.42;;;7.25;;
9749;SDS011;4914;43.218;27.908;2022-08-19T10:35:17;29.42;;;7.50;;
9749;SDS011;4914;43.218;27.908;2022-08-19T10:37:44;16.15;;;7.07;;
9749;SDS011;4914;43.218;27.908;2022-08-19T10:40:11;24.10;;;7.45;;
9749;SDS011;4914;43.218;27.908;2022-08-19T10:42:38;18.92;;;7.05;;
9749;SDS011;4914;43.218;27.908;2022-08-19T10:45:05;14.48;;;6.57;;
9749;SDS011;4914;43.218;27.908;2022-08-19T10:47:34;14.68;;;6.55;;
9749;SDS011;4914;43.218;27.908;2022-08-19T10:50:03;15.05;;;6.90;;
9749;SDS011;4914;43.218;27.908;2022-08-19T10:52:50;14.52;;;6.68;;
9749;SDS011;4914;43.218;27.908;2022-08-19T10:55:18;23.70;;;7.60;;
9749;SDS011;4914;43.218;27.908;2022-08-19T10:58:04;14.23;;;6.68;;
9749;SDS011;4914;43.218;27.908;2022-08-19T11:00:36;11.70;;;6.35;;
9749;SDS011;4914;43.218;27.908;2022-08-19T11:03:03;15.60;;;6.70;;
9749;SDS011;4914;43.218;27.908;2022-08-19T11:05:32;9.82;;;7.38;;
9749;SDS011;4914;43.218;27.908;2022-08-19T11:07:59;11.63;;;7.30;;
9749;SDS011;4914;43.218;27.908;2022-08-19T11:10:25;17.58;;;7.28;;
9749;SDS011;4914;43.218;27.908;2022-08-19T11:12:55;12.68;;;7.43;;
9749;SDS011;4914;43.218;27.908;2022-08-19T11:15:22;9.52;;;7.50;;
9749;SDS011;4914;43.218;27.908;2022-08-19T11:17:50;14.57;;;8.45;;
9749;SDS011;4914;43.218;27.908;2022-08-19T11:20:19;18.17;;;8.25;;
9749;SDS011;4914;43.218;27.908;2022-08-19T11:22:47;17.95;;;8.88;;
9749;SDS011;4914;43.218;27.908;2022-08-19T11:25:14;18.63;;;8.63;;
9749;SDS011;4914;43.218;27.908;2022-08-19T11:27:41;19.42;;;9.55;;
9749;SDS011;4914;43.218;27.908;2022-08-19T11:30:11;15.65;;;10.20;;
9749;SDS011;4914;43.218;27.908;2022-08-19T11:32:40;19.75;;;9.50;;
9749;SDS011;4914;43.218;27.908;2022-08-19T11:35:07;12.07;;;9.07;;
9749;SDS011;4914;43.218;27.908;2022-08-19T11:37:36;16.88;;;9.07;;
9749;SDS011;4914;43.218;27.908;2022-08-19T11:40:05;12.70;;;9.05;;
9749;SDS011;4914;43.218;27.908;2022-08-19T11:42:33;17.10;;;9.88;;
9749;SDS011;4914;43.218;27.908;2022-08-19T11:45:17;11.07;;;10.07;;
9749;SDS011;4914;43.218;27.908;2022-08-19T11:47:44;14.27;;;9.68;;
9749;SDS011;4914;43.218;27.908;2022-08-19T11:50:12;13.68;;;9.93;;
9749;SDS011;4914;43.218;27.908;2022-08-19T11:52:39;12.57;;;9.70;;
9749;SDS011;4914;43.218;27.908;2022-08-19T11:55:08;12.85;;;9.07;;
9749;SDS011;4914;43.218;27.908;2022-08-19T11:57:35;11.65;;;9.25;;
9749;SDS011;4914;43.218;27.908;2022-08-19T12:00:03;16.52;;;9.85;;
9749;SDS011;4914;43.218;27.908;2022-08-19T12:02:31;13.38;;;10.30;;
9749;SDS011;4914;43.218;27.908;2022-08-19T12:04:58;11.52;;;9.85;;
9749;SDS011;4914;43.218;27.908;2022-08-19T12:07:26;11.30;;;9.77;;
9749;SDS011;4914;43.218;27.908;2022-08-19T12:09:54;12.75;;;10.50;;
9749;SDS011;4914;43.218;27.908;2022-08-19T12:12:22;13.48;;;10.15;;
9749;SDS011;4914;43.218;27.908;2022-08-19T12:14:49;14.55;;;10.48;;
9749;SDS011;4914;43.218;27.908;2022-08-19T12:17:21;17.92;;;10.30;;
9749;SDS011;4914;43.218;27.908;2022-08-19T12:19:48;12.43;;;10.10;;
9749;SDS011;4914;43.218;27.908;2022-08-19T12:22:15;11.90;;;10.68;;
9749;SDS011;4914;43.218;27.908;2022-08-19T12:24:42;11.88;;;10.57;;
9749;SDS011;4914;43.218;27.908;2022-08-19T12:27:09;12.95;;;10.25;;
9749;SDS011;4914;43.218;27.908;2022-08-19T12:29:38;19.30;;;11.20;;
9749;SDS011;4914;43.218;27.908;2022-08-19T12:32:05;13.52;;;10.60;;
9749;SDS011;4914;43.218;27.908;2022-08-19T12:34:32;14.70;;;10.80;;
9749;SDS011;4914;43.218;27.908;2022-08-19T12:37:02;12.55;;;11.02;;
9749;SDS011;4914;43.218;27.908;2022-08-19T12:39:33;13.23;;;11.02;;
9749;SDS011;4914;43.218;27.908;2022-08-19T12:42:00;14.05;;;10.75;;
9749;SDS011;4914;43.218;27.908;2022-08-19T12:44:27;15.25;;;10.68;;
9749;SDS011;4914;43.218;27.908;2022-08-19T12:46:57;13.35;;;11.18;;
9749;SDS011;4914;43.218;27.908;2022-08-19T12:49:24;12.80;;;10.98;;
9749;SDS011;4914;43.218;27.908;2022-08-19T12:51:53;14.68;;;11.00;;
9749;SDS011;4914;43.218;27.908;2022-08-19T12:54:20;13.05;;;9.98;;
9749;SDS011;4914;43.218;27.908;2022-08-19T12:56:47;13.25;;;10.43;;
9749;SDS011;4914;43.218;27.908;2022-08-19T12:59:14;13.73;;;10.43;;
9749;SDS011;4914;43.218;27.908;2022-08-19T13:01:43;13.45;;;10.70;;
9749;SDS011;4914;43.218;27.908;2022-08-19T13:04:11;18.02;;;10.82;;
9749;SDS011;4914;43.218;27.908;2022-08-19T13:06:38;15.80;;;10.57;;
9749;SDS011;4914;43.218;27.908;2022-08-19T13:09:05;11.50;;;10.30;;
9749;SDS011;4914;43.218;27.908;2022-08-19T13:11:32;13.30;;;10.20;;
9749;SDS011;4914;43.218;27.908;2022-08-19T13:14:00;13.48;;;10.50;;
9749;SDS011;4914;43.218;27.908;2022-08-19T13:16:28;13.52;;;10.80;;
9749;SDS011;4914;43.218;27.908;2022-08-19T13:18:55;11.70;;;10.20;;
9749;SDS011;4914;43.218;27.908;2022-08-19T13:21:26;15.07;;;10.27;;
9749;SDS011;4914;43.218;27.908;2022-08-19T13:23:55;12.95;;;10.35;;
9749;SDS011;4914;43.218;27.908;2022-08-19T13:26:23;11.82;;;10.43;;
9749;SDS011;4914;43.218;27.908;2022-08-19T13:28:50;13.07;;;10.88;;
9749;SDS011;4914;43.218;27.908;2022-08-19T13:31:35;13.45;;;10.05;;
9749;SDS011;4914;43.218;27.908;2022-08-19T13:34:26;17.15;;;10.23;;
9749;SDS011;4914;43.218;27.908;2022-08-19T13:36:57;13.27;;;10.15;;
9749;SDS011;4914;43.218;27.908;2022-08-19T13:39:24;15.85;;;10.10;;
9749;SDS011;4914;43.218;27.908;2022-08-19T13:41:52;14.38;;;10.77;;
9749;SDS011;4914;43.218;27.908;2022-08-19T13:44:19;16.13;;;10.00;;
9749;SDS011;4914;43.218;27.908;2022-08-19T13:46:46;13.98;;;10.95;;
9749;SDS011;4914;43.218;27.908;2022-08-19T13:49:15;12.88;;;10.43;;
9749;SDS011;4914;43.218;27.908;2022-08-19T13:51:42;15.55;;;10.10;;
9749;SDS011;4914;43.218;27.908;2022-08-19T13:54:11;13.15;;;10.13;;
9749;SDS011;4914;43.218;27.908;2022-08-19T13:56:40;17.10;;;10.35;;
9749;SDS011;4914;43.218;27.908;2022-08-19T13:59:09;13.90;;;10.25;;
9749;SDS011;4914;43.218;27.908;2022-08-19T14:01:36;12.65;;;9.15;;
9749;SDS011;4914;43.218;27.908;2022-08-19T14:04:03;10.18;;;9.18;;
9749;SDS011;4914;43.218;27.908;2022-08-19T14:06:31;16.20;;;9.48;;
9749;SDS011;4914;43.218;27.908;2022-08-19T14:08:57;13.65;;;9.77;;
9749;SDS011;4914;43.218;27.908;2022-08-19T14:11:26;11.88;;;9.38;;
9749;SDS011;4914;43.218;27.908;2022-08-19T14:13:53;11.43;;;9.68;;
9749;SDS011;4914;43.218;27.908;2022-08-19T14:16:20;14.23;;;9.00;;
9749;SDS011;4914;43.218;27.908;2022-08-19T14:18:47;13.73;;;9.02;;
9749;SDS011;4914;43.218;27.908;2022-08-19T14:21:15;14.52;;;9.32;;
9749;SDS011;4914;43.218;27.908;2022-08-19T14:23:43;10.18;;;8.85;;
9749;SDS011;4914;43.218;27.908;2022-08-19T14:26:12;12.48;;;9.60;;
9749;SDS011;4914;43.218;27.908;2022-08-19T14:28:42;13.93;;;9.38;;
9749;SDS011;4914;43.218;27.908;2022-08-19T14:31:11;11.98;;;9.73;;
9749;SDS011;4914;43.218;27.908;2022-08-19T14:33:41;21.15;;;9.20;;
9749;SDS011;4914;43.218;27.908;2022-08-19T14:36:08;11.10;;;9.25;;
9749;SDS011;4914;43.218;27.908;2022-08-19T14:38:35;14.50;;;9.93;;
9749;SDS011;4914;43.218;27.908;2022-08-19T14:41:09;10.68;;;9.57;;
9749;SDS011;4914;43.218;27.908;2022-08-19T14:43:38;11.70;;;9.50;;
9749;SDS011;4914;43.218;27.908;2022-08-19T14:46:07;14.63;;;9.70;;
9749;SDS011;4914;43.218;27.908;2022-08-19T14:48:35;13.15;;;9.55;;